KSFF/SFF METAR and TAF weather

Enter ICAO airport designator
Station Type Date Time Source
KSFF METAR 2022/05/23 12:53 UTC NOAA

KSFF 231253Z AUTO 04003KT 10SM CLR 07/04 A3014 RMK AO2 SLP204 T00670039


Station Type Date Time Source
KSFF Decoded METAR 2022/05/23 12:53 UTC NOAA

FELTS FIELD, WA, United States (KSFF) 47-41N 117-19W 609M
May 23, 2022 - 08:53 AM EDT / 2022.05.23 1253 UTC
Wind: from the NE (040 degrees) at 3 MPH (3 KT):0
Visibility: 10 mile(s):0
Sky conditions: clear
Temperature: 44.1 F (6.7 C)
Dew Point: 39.0 F (3.9 C)
Relative Humidity: 82%
Pressure (altimeter): 30.14 in. Hg (1020 hPa)
ob: KSFF 231253Z AUTO 04003KT 10SM CLR 07/04 A3014 RMK AO2 SLP204 T00670039
cycle: 13

Station Type Date Time Source
KSFF TAF 2022/05/23 12:30 UTC NOAA

TAF KSFF 231129Z 2312/2412 VRB04KT P6SM SCT120 BKN220
FM231700 20004KT P6SM VCSH BKN070 BKN110
FM232300 22009G18KT P6SM BKN050 BKN110 PROB30 2323/2403 5SM -TSRA BKN050CB
FM240400 22005KT P6SM BKN070
FM240600 16003KT P6SM SKC

Example: see airport list